メインページ
METAR-TAF:

METAR-TAF

空港 :

テグシガルパ, ホンジュラス

トンコンティン国際空港

緯度: 14-03N, 経度: 087-13W, 海抜: 994m

現時点の気象観測

当レポートは16分前の02:00(UTC)に作成
南/南西の風 3kt
気温 25°C
湿度 79%
気圧 1017 hPa
視程10km以上
高度3000ftの雲は散在している

METAR: MHTG 010200Z 20003KT 9999 SCT030 25/21 Q1017 A3003 NOSIG

時間: 20:16 (02:16 UTC)

予報

当レポートは3時間51分前の22:25(UTC)に作成
予報は01日の 00時(UTC)から 01日の 24時(UTC)まで有効
南/南西の風 10kt
視程: 8000m
高度3000ftの雲はほとんどない, 積乱雲.
高度3200ftの千切れ雲あり, 塔状積雲.
近辺でにわか雨
01日の 06時(UTC)から 01日の 08時(UTC)まで徐々に
南/南東の風 4kt
高度2600ftの雲は散在している
高度7000ftの雲は散在している
01日の 14時(UTC)から 01日の 16時(UTC)まで徐々に
視程10km以上
高度3000ftの雲はほとんどない, 積乱雲.
高度3200ftの雲は散在している, 塔状積雲.
確率 30% :
01日の 20時(UTC)から 01日の 24時(UTC)まで一時的に
南/南西の風 10kt
視程: 7000m
高度3000ftの雲は散在している, 積乱雲.
高度8000ftの雲は散在している
近辺でにわか雨

TAF: MHTG 302225Z 0100/0124 20010KT 8000 VCSH FEW030CB BKN032TCU TX32/0121Z TN19/0112Z BECMG 0106/0108 16004KT NSW SCT026 SCT070 BECMG 0114/0116 9999 FEW030CB SCT032TCU PROB30 TEMPO 0120/0124 20010KT 7000 VCSH SCT030CB SCT080

4,000以上の空港の気象観測と天気予報(METAR報とTAF報)

利用可能な観測所は地図上に黄色い丸と赤い丸で示す。

丸の上にカーソルを重ねると観測所名を参照できる。

次にクリックすると気象観測と天気予報を参照できる。

マップの切り替え:黒色「×」印の緑ボタンをクリックして拡大、「-」印の緑ボタンをクリックして縮小、緑色の三角印をクリックして隣りの地図に切り替え


METAR-TAF: